Time;durP1;ratioP1;P1;durP2;ratioP2;P2;SDS_P1;SDS_P2;PMS_P1;PMS_P2;Temp;Humidity;BMP_temperature;BMP_pressure;BME280_temperature;BME280_humidity;BME280_pressure;Samples;Min_cycle;Max_cycle;Signal;HPM_P1;HPM_P2
2022/05/22 00:01:50;;;;;;;1.50;1.40;;;12.80;99.90;;;;;;7374665;19;20358;-72
2022/05/22 00:04:16;;;;;;;2.55;1.48;;;12.80;99.90;;;;;;7380668;19;20432;-72
2022/05/22 00:06:41;;;;;;;2.13;1.30;;;12.70;99.90;;;;;;7373864;19;20308;-72
2022/05/22 00:09:07;;;;;;;2.17;1.10;;;12.70;99.90;;;;;;7378728;19;20923;-72
2022/05/22 00:11:32;;;;;;;3.10;1.30;;;12.70;99.90;;;;;;7376312;19;20332;-72
2022/05/22 00:13:58;;;;;;;1.23;1.23;;;12.70;99.90;;;;;;7379567;19;20428;-72
2022/05/22 00:16:40;;;;;;;1.00;1.00;;;12.60;99.90;;;;;;7379775;19;21051;-71
2022/05/22 00:19:15;;;;;;;1.30;1.20;;;12.50;99.90;;;;;;7359713;19;20360;-72
2022/05/22 00:21:42;;;;;;;1.23;1.10;;;12.60;99.90;;;;;;7373535;19;20352;-73
2022/05/22 00:24:09;;;;;;;1.40;1.30;;;12.50;99.90;;;;;;7376243;19;20369;-73
2022/05/22 00:26:36;;;;;;;1.58;1.48;;;12.50;99.90;;;;;;7377370;19;20413;-74
2022/05/22 00:29:02;;;;;;;1.40;1.25;;;12.50;99.90;;;;;;7379764;19;20345;-73
2022/05/22 00:31:28;;;;;;;3.20;1.00;;;12.40;99.90;;;;;;7373925;19;20321;-71
2022/05/22 00:33:54;;;;;;;1.55;1.30;;;12.40;99.90;;;;;;7376603;19;20341;-71
2022/05/22 00:36:19;;;;;;;1.98;1.40;;;12.40;99.90;;;;;;7374198;19;20346;-72
2022/05/22 00:38:45;;;;;;;1.90;1.27;;;12.40;99.90;;;;;;7378370;19;20321;-71
2022/05/22 00:41:11;;;;;;;2.60;1.60;;;12.30;99.90;;;;;;7371930;19;20370;-71
2022/05/22 00:43:44;;;;;;;1.00;1.00;;;12.20;99.90;;;;;;7379802;19;20352;-72
2022/05/22 00:46:12;;;;;;;2.00;1.40;;;12.20;99.90;;;;;;7374595;19;20416;-72
2022/05/22 00:48:38;;;;;;;1.65;1.40;;;12.10;99.90;;;;;;7375660;19;20488;-72
2022/05/22 00:51:18;;;;;;;1.55;1.20;;;12.10;99.90;;;;;;7374431;19;20357;-71
2022/05/22 00:53:47;;;;;;;1.33;1.23;;;12.10;99.90;;;;;;7375173;19;20352;-73
2022/05/22 00:56:14;;;;;;;1.50;1.30;;;12.10;99.90;;;;;;7373576;19;20358;-72
2022/05/22 00:58:39;;;;;;;1.92;1.40;;;12.10;99.90;;;;;;7377569;19;20305;-71
2022/05/22 01:01:05;;;;;;;1.40;1.08;;;12.00;99.90;;;;;;7372166;19;20328;-72
2022/05/22 01:03:31;;;;;;;1.55;1.45;;;12.00;99.90;;;;;;7377882;19;20340;-71
2022/05/22 01:06:10;;;;;;;2.78;1.55;;;12.00;99.90;;;;;;7373851;19;21241;-72
2022/05/22 01:08:37;;;;;;;2.43;1.50;;;12.00;99.90;;;;;;7378438;19;20343;-71
2022/05/22 01:11:11;;;;;;;1.70;1.42;;;12.00;99.90;;;;;;7375027;19;21211;-71
2022/05/22 01:13:38;;;;;;;1.38;1.27;;;12.00;99.90;;;;;;7375496;19;20348;-71
2022/05/22 01:16:04;;;;;;;2.03;1.35;;;12.00;99.90;;;;;;7373257;19;20423;-71
2022/05/22 01:18:30;;;;;;;1.33;1.23;;;12.00;99.90;;;;;;7377268;19;20412;-72
2022/05/22 01:20:56;;;;;;;1.50;1.10;;;12.00;99.90;;;;;;7370183;19;20419;-71
2022/05/22 01:23:29;;;;;;;1.40;1.30;;;12.00;99.90;;;;;;7377121;19;20335;-72
2022/05/22 01:26:01;;;;;;;1.70;1.30;;;12.10;99.90;;;;;;7269922;19;2004417;-72
2022/05/22 01:28:27;;;;;;;2.43;1.20;;;12.00;99.90;;;;;;7377577;19;20375;-72
2022/05/22 01:30:54;;;;;;;1.40;1.20;;;11.90;99.90;;;;;;7373441;19;20329;-72
2022/05/22 01:33:20;;;;;;;1.60;1.45;;;12.00;99.90;;;;;;7378457;19;20320;-72
2022/05/22 01:35:47;;;;;;;1.80;1.45;;;12.00;99.90;;;;;;7372274;19;20356;-72
2022/05/22 01:38:12;;;;;;;1.48;1.30;;;12.00;99.90;;;;;;7375757;19;20364;-72
2022/05/22 01:40:41;;;;;;;2.30;1.50;;;12.00;99.90;;;;;;7380248;19;20339;-72
2022/05/22 01:43:07;;;;;;;2.15;1.60;;;12.00;99.90;;;;;;7379591;19;20373;-71
2022/05/22 01:45:34;;;;;;;1.50;1.40;;;11.90;99.90;;;;;;7376204;19;20420;-74
2022/05/22 01:48:01;;;;;;;2.45;1.50;;;11.90;99.90;;;;;;7381940;19;20305;-72
2022/05/22 01:50:34;;;;;;;2.15;1.30;;;11.90;99.90;;;;;;7381969;19;20329;-71
2022/05/22 01:52:59;;;;;;;1.42;1.33;;;11.90;99.90;;;;;;7380829;19;20324;-72
2022/05/22 01:55:25;;;;;;;3.10;1.45;;;11.90;99.90;;;;;;7380842;19;20340;-72
2022/05/22 01:57:51;;;;;;;1.50;1.40;;;11.90;99.90;;;;;;7382709;19;20326;-71
2022/05/22 02:00:19;;;;;;;1.42;1.15;;;12.00;99.90;;;;;;7380676;19;20412;-71
2022/05/22 02:02:46;;;;;;;1.40;1.30;;;12.00;99.90;;;;;;7384125;19;20321;-72
2022/05/22 02:05:19;;;;;;;1.40;1.30;;;12.00;99.90;;;;;;7380664;19;20344;-72
2022/05/22 02:10:31;;;;;;;2.27;1.20;;;12.00;99.90;;;;;;7379172;19;21482;-73
2022/05/22 02:12:57;;;;;;;1.20;1.10;;;12.00;99.90;;;;;;7380026;19;20320;-72
2022/05/22 02:15:23;;;;;;;2.80;1.50;;;12.00;99.90;;;;;;7381629;19;20362;-72
2022/05/22 02:17:49;;;;;;;1.40;1.30;;;12.00;99.90;;;;;;7381217;19;20348;-72
2022/05/22 02:20:14;;;;;;;1.35;1.20;;;11.90;99.90;;;;;;7379465;19;20349;-73
2022/05/22 02:22:44;;;;;;;2.00;1.30;;;11.90;99.90;;;;;;7377154;19;20314;-70
2022/05/22 02:25:11;;;;;;;1.38;1.27;;;12.00;99.90;;;;;;7375889;19;21156;-71
2022/05/22 02:27:38;;;;;;;2.13;1.23;;;12.00;99.90;;;;;;7380258;19;20416;-72
2022/05/22 02:30:05;;;;;;;1.27;1.17;;;12.00;99.90;;;;;;7381813;19;20337;-73
2022/05/22 02:32:31;;;;;;;1.52;1.38;;;12.00;99.90;;;;;;7385372;19;20328;-72
2022/05/22 02:34:57;;;;;;;1.50;1.30;;;12.10;99.90;;;;;;7380307;19;21171;-72
2022/05/22 02:37:22;;;;;;;1.88;1.23;;;12.00;99.90;;;;;;7376763;19;20662;-72
2022/05/22 02:39:49;;;;;;;1.10;1.10;;;12.00;99.90;;;;;;7384020;19;20348;-72
2022/05/22 02:42:35;;;;;;;1.73;1.20;;;12.00;99.90;;;;;;7382427;19;20442;-72
2022/05/22 02:45:01;;;;;;;1.95;1.33;;;12.00;99.90;;;;;;7378731;19;20320;-72
2022/05/22 02:47:27;;;;;;;2.05;1.27;;;12.00;99.90;;;;;;7380258;19;20320;-73
2022/05/22 02:49:53;;;;;;;1.30;1.20;;;11.90;99.90;;;;;;7381098;19;20371;-71
2022/05/22 02:52:18;;;;;;;1.17;1.10;;;12.00;99.90;;;;;;7379308;19;20376;-73
2022/05/22 02:54:44;;;;;;;7.23;1.47;;;11.90;99.90;;;;;;7379878;19;20353;-75
2022/05/22 02:57:11;;;;;;;1.40;1.30;;;11.90;99.90;;;;;;7378291;19;20341;-74
2022/05/22 02:59:41;;;;;;;2.00;1.20;;;11.90;99.90;;;;;;7379202;19;20363;-71
2022/05/22 03:02:29;;;;;;;1.33;1.23;;;11.90;99.90;;;;;;7361218;19;20340;-72
2022/05/22 03:04:54;;;;;;;2.40;1.55;;;11.90;99.90;;;;;;7374589;19;20337;-72
2022/05/22 03:07:20;;;;;;;5.17;1.60;;;11.90;99.90;;;;;;7378519;19;20325;-72
2022/05/22 03:09:47;;;;;;;3.15;1.50;;;11.90;99.90;;;;;;7380183;19;20360;-72
2022/05/22 03:12:20;;;;;;;1.65;1.52;;;11.90;99.90;;;;;;7381595;19;20692;-72
2022/05/22 03:14:54;;;;;;;2.60;1.45;;;11.90;99.90;;;;;;7376586;19;20430;-73
2022/05/22 03:17:20;;;;;;;3.57;1.33;;;11.90;99.90;;;;;;7375967;19;20396;-72
2022/05/22 03:19:53;;;;;;;1.30;1.20;;;11.90;99.90;;;;;;7380066;19;20653;-71
2022/05/22 03:22:19;;;;;;;5.17;1.57;;;11.90;99.90;;;;;;7376630;19;20901;-72
2022/05/22 03:24:45;;;;;;;3.00;1.65;;;11.90;99.90;;;;;;7375547;19;20362;-72
2022/05/22 03:27:13;;;;;;;2.27;1.43;;;11.90;99.90;;;;;;7376133;19;20668;-72
2022/05/22 03:29:39;;;;;;;2.10;1.73;;;11.90;99.90;;;;;;7379064;19;21130;-72
2022/05/22 03:32:05;;;;;;;1.70;1.60;;;11.90;99.90;;;;;;7374088;19;21246;-72
2022/05/22 03:34:31;;;;;;;2.10;1.58;;;12.00;99.90;;;;;;7378354;19;20444;-72
2022/05/22 03:36:57;;;;;;;1.58;1.48;;;12.00;99.90;;;;;;7377528;19;20976;-71
2022/05/22 03:39:22;;;;;;;2.33;1.63;;;12.00;99.90;;;;;;7380275;19;20321;-73
2022/05/22 03:41:48;;;;;;;2.13;1.60;;;12.10;99.90;;;;;;7379464;19;20430;-71
2022/05/22 03:44:16;;;;;;;2.20;1.58;;;12.10;99.90;;;;;;7376278;19;20348;-71
2022/05/22 03:46:45;;;;;;;2.83;1.80;;;12.30;99.90;;;;;;7378606;19;20408;-71
2022/05/22 03:49:12;;;;;;;2.55;1.75;;;12.20;99.90;;;;;;7380075;19;20358;-71
2022/05/22 03:51:39;;;;;;;2.63;1.77;;;12.30;99.90;;;;;;7375721;19;20340;-71
2022/05/22 03:54:09;;;;;;;3.30;1.60;;;12.20;99.90;;;;;;7380226;19;21197;-71
2022/05/22 03:56:39;;;;;;;1.55;1.45;;;12.20;99.90;;;;;;7276069;19;2004433;-72
2022/05/22 03:59:08;;;;;;;1.80;1.70;;;12.20;99.90;;;;;;7377208;19;20456;-72
2022/05/22 04:01:34;;;;;;;2.85;1.50;;;12.10;99.90;;;;;;7353863;19;20344;-70
2022/05/22 04:04:01;;;;;;;4.80;1.83;;;12.20;99.90;;;;;;7371935;19;20337;-71
2022/05/22 04:06:27;;;;;;;2.63;1.80;;;12.10;99.90;;;;;;7374520;19;20345;-70
2022/05/22 04:08:53;;;;;;;1.88;1.67;;;12.10;99.90;;;;;;7377071;19;20669;-70
2022/05/22 04:11:28;;;;;;;2.35;1.73;;;12.10;99.90;;;;;;7375157;19;20714;-70
2022/05/22 04:14:02;;;;;;;2.05;1.70;;;12.00;99.90;;;;;;7277585;19;2004274;-71
2022/05/22 04:16:27;;;;;;;2.47;1.60;;;12.10;99.90;;;;;;7376455;19;20359;-71
2022/05/22 04:18:53;;;;;;;3.35;1.73;;;12.10;99.90;;;;;;7376949;19;20309;-71
2022/05/22 04:21:19;;;;;;;2.20;1.50;;;12.10;99.90;;;;;;7373699;19;20340;-70
2022/05/22 04:26:49;;;;;;;2.22;1.50;;;12.10;99.90;;;;;;7272716;19;2004584;-71
2022/05/22 04:29:15;;;;;;;2.05;1.58;;;12.10;99.90;;;;;;7378800;19;20400;-70
2022/05/22 04:31:41;;;;;;;1.55;1.40;;;12.10;99.90;;;;;;7374410;19;20344;-71
2022/05/22 04:34:10;;;;;;;2.20;1.73;;;12.30;99.90;;;;;;7376203;19;20663;-71
2022/05/22 04:36:37;;;;;;;2.00;1.70;;;12.30;99.90;;;;;;7373408;19;20450;-71
2022/05/22 04:39:03;;;;;;;1.80;1.58;;;12.30;99.90;;;;;;7377178;19;20348;-71
2022/05/22 04:41:30;;;;;;;2.57;1.70;;;12.30;99.90;;;;;;7375888;19;20348;-70
2022/05/22 04:43:56;;;;;;;2.05;1.63;;;12.30;99.90;;;;;;7377774;19;20325;-71
2022/05/22 04:46:21;;;;;;;3.30;1.80;;;12.10;99.90;;;;;;7372590;19;20372;-71
2022/05/22 04:48:47;;;;;;;2.03;1.57;;;12.20;99.90;;;;;;7376292;19;20883;-71
2022/05/22 04:51:13;;;;;;;2.00;1.40;;;12.30;99.90;;;;;;7375790;19;20307;-71
2022/05/22 04:53:46;;;;;;;2.03;1.50;;;12.40;99.90;;;;;;7376661;19;20420;-71
2022/05/22 04:56:29;;;;;;;1.65;1.55;;;12.50;99.90;;;;;;7373787;19;20361;-71
2022/05/22 04:59:00;;;;;;;2.23;1.60;;;12.50;99.90;;;;;;7378117;19;20377;-71
2022/05/22 05:01:26;;;;;;;4.30;1.60;;;12.50;99.90;;;;;;7374572;19;20336;-71
2022/05/22 05:04:13;;;;;;;1.58;1.48;;;12.70;99.90;;;;;;7377378;19;20340;-71
2022/05/22 05:06:53;;;;;;;2.45;1.60;;;12.80;99.90;;;;;;7372872;19;20714;-71
2022/05/22 05:09:41;;;;;;;1.80;1.20;;;12.90;99.90;;;;;;7274517;19;2004535;-71
2022/05/22 05:12:17;;;;;;;2.47;1.50;;;13.00;99.90;;;;;;7275833;19;2004338;-71
2022/05/22 05:14:43;;;;;;;4.18;1.60;;;13.10;99.90;;;;;;7373433;19;20340;-71
2022/05/22 05:17:10;;;;;;;2.15;1.45;;;13.00;99.90;;;;;;7374634;19;20345;-71
2022/05/22 05:19:37;;;;;;;3.80;1.55;;;13.10;99.90;;;;;;7376188;19;20352;-71
2022/05/22 05:22:03;;;;;;;1.98;1.42;;;13.10;99.90;;;;;;7374534;19;20327;-71
2022/05/22 05:24:29;;;;;;;3.50;1.42;;;13.20;99.90;;;;;;7373351;19;20736;-71
2022/05/22 05:26:56;;;;;;;1.23;1.10;;;13.30;99.90;;;;;;7373368;19;20736;-71
2022/05/22 05:29:22;;;;;;;1.30;1.20;;;13.30;99.90;;;;;;7376447;19;20450;-71
2022/05/22 05:31:48;;;;;;;2.13;1.40;;;13.50;99.90;;;;;;7374650;19;20311;-72
2022/05/22 05:34:15;;;;;;;2.08;1.30;;;13.60;99.90;;;;;;7376416;19;20300;-71
2022/05/22 05:36:53;;;;;;;1.85;1.13;;;13.80;99.90;;;;;;7374726;19;20379;-71
2022/05/22 05:39:34;;;;;;;2.10;1.30;;;13.70;99.90;;;;;;7274012;19;2004993;-71
2022/05/22 05:42:10;;;;;;;3.58;1.52;;;13.70;99.90;;;;;;7376391;19;20312;-71
2022/05/22 05:44:37;;;;;;;3.30;1.40;;;13.90;99.90;;;;;;7371997;19;20379;-70
2022/05/22 05:47:15;;;;;;;1.60;1.20;;;14.10;99.90;;;;;;7373720;19;20696;-71
2022/05/22 05:50:06;;;;;;;1.83;1.45;;;14.30;99.90;;;;;;7274710;19;2004425;-72
2022/05/22 05:52:44;;;;;;;1.70;1.20;;;14.00;99.90;;;;;;7274547;19;2004713;-70
2022/05/22 05:55:30;;;;;;;2.80;1.53;;;14.10;99.90;;;;;;7270691;19;2004421;-71
2022/05/22 05:58:21;;;;;;;2.10;1.55;;;14.20;99.90;;;;;;7376049;19;20344;-72
2022/05/22 06:00:54;;;;;;;3.08;1.40;;;14.20;99.90;;;;;;7375044;19;20341;-71
2022/05/22 06:03:22;;;;;;;2.10;1.20;;;14.10;99.90;;;;;;7377254;19;20316;-71
2022/05/22 06:05:53;;;;;;;3.95;1.27;;;14.40;99.90;;;;;;7369541;19;20412;-71
2022/05/22 06:08:26;;;;;;;1.70;1.30;;;14.50;99.90;;;;;;7375225;19;20672;-71
2022/05/22 06:10:57;;;;;;;2.05;1.23;;;14.60;99.90;;;;;;7375047;19;20361;-71
2022/05/22 06:13:32;;;;;;;2.47;1.35;;;14.70;99.90;;;;;;7376310;19;20871;-72
2022/05/22 06:15:58;;;;;;;3.00;1.50;;;14.80;99.90;;;;;;7366828;19;20312;-72
2022/05/22 06:18:23;;;;;;;2.10;1.30;;;15.00;99.90;;;;;;7376110;19;20326;-71
2022/05/22 06:20:52;;;;;;;1.50;1.30;;;15.00;99.90;;;;;;7375419;19;20361;-72
2022/05/22 06:23:23;;;;;;;1.90;1.20;;;15.00;99.90;;;;;;7375683;19;20365;-71
2022/05/22 06:26:12;;;;;;;1.30;1.20;;;15.20;99.90;;;;;;7373655;19;20369;-71
2022/05/22 06:28:52;;;;;;;2.22;1.20;;;15.50;99.90;;;;;;7382583;19;20315;-71
2022/05/22 06:31:46;;;;;;;1.50;1.30;;;15.80;99.90;;;;;;7275465;19;2004617;-72
2022/05/22 06:34:34;;;;;;;1.30;1.20;;;15.90;99.90;;;;;;7376576;19;20886;-72
2022/05/22 06:37:26;;;;;;;2.10;1.42;;;15.50;99.90;;;;;;7277119;19;2004762;-71
2022/05/22 06:40:21;;;;;;;2.58;1.25;;;15.50;99.90;;;;;;7277911;19;2004428;-71
2022/05/22 06:43:21;;;;;;;1.27;1.13;;;15.70;99.90;;;;;;7282723;19;2004853;-72
2022/05/22 06:46:06;;;;;;;1.92;1.17;;;15.90;99.90;;;;;;7376279;19;20542;-72
2022/05/22 06:48:58;;;;;;;1.80;1.20;;;16.00;99.90;;;;;;7279457;19;2004641;-71
2022/05/22 06:51:48;;;;;;;3.72;1.30;;;16.30;99.90;;;;;;7256055;19;2004417;-73
2022/05/22 06:54:30;;;;;;;1.17;0.97;;;16.40;99.90;;;;;;7379405;19;20329;-71
2022/05/22 06:57:26;;;;;;;1.77;1.27;;;16.50;99.90;;;;;;7276192;19;2004683;-72
2022/05/22 07:00:00;;;;;;;1.65;1.17;;;17.00;99.90;;;;;;7380565;19;20309;-72
2022/05/22 07:02:44;;;;;;;1.92;1.20;;;17.20;99.90;;;;;;7277259;19;2004592;-72
2022/05/22 07:05:20;;;;;;;1.75;1.00;;;17.20;99.90;;;;;;7374594;19;20732;-71
2022/05/22 07:07:57;;;;;;;1.80;1.17;;;17.40;99.90;;;;;;7379689;19;20316;-72
2022/05/22 07:13:40;;;;;;;1.45;1.30;;;17.00;99.90;;;;;;7279047;19;2004527;-72
2022/05/22 07:16:23;;;;;;;1.10;1.00;;;16.60;99.90;;;;;;7372629;19;20344;-71
2022/05/22 07:19:04;;;;;;;1.17;1.10;;;16.50;99.90;;;;;;7381113;19;20657;-71
2022/05/22 07:22:08;;;;;;;1.30;0.90;;;16.00;99.90;;;;;;7275417;19;2004705;-75
2022/05/22 07:24:39;;;;;;;2.38;1.30;;;16.40;99.90;;;;;;7372383;19;20364;-71
2022/05/22 07:27:26;;;;;;;1.58;1.10;;;16.70;99.90;;;;;;7274717;19;2004408;-71
2022/05/22 07:30:12;;;;;;;3.10;1.50;;;16.60;99.90;;;;;;7379720;19;20332;-71
2022/05/22 07:32:55;;;;;;;1.88;1.17;;;16.90;99.90;;;;;;7378945;19;20348;-71
2022/05/22 07:35:36;;;;;;;1.48;1.17;;;17.00;99.90;;;;;;7274262;19;2004429;-72
2022/05/22 07:38:23;;;;;;;1.65;1.17;;;17.00;99.90;;;;;;7274779;19;2004342;-72
2022/05/22 07:41:09;;;;;;;1.73;1.00;;;17.00;99.90;;;;;;7378184;19;20337;-71
2022/05/22 07:43:47;;;;;;;2.08;1.08;;;16.80;99.90;;;;;;7379650;19;20886;-71
2022/05/22 07:46:16;;;;;;;1.70;1.08;;;16.60;99.90;;;;;;7375248;19;20340;-72
2022/05/22 07:48:50;;;;;;;1.33;1.00;;;16.60;99.90;;;;;;7382314;19;21166;-71
2022/05/22 07:51:41;;;;;;;1.65;1.17;;;16.40;99.90;;;;;;7276315;19;2004398;-72
2022/05/22 07:54:36;;;;;;;2.17;1.10;;;16.40;99.90;;;;;;7276192;19;2004735;-71
2022/05/22 07:57:22;;;;;;;1.83;1.20;;;16.30;99.90;;;;;;7274729;19;2004336;-73
2022/05/22 07:59:55;;;;;;;2.85;1.00;;;16.40;99.90;;;;;;7376129;19;20384;-72
2022/05/22 08:02:39;;;;;;;1.63;1.00;;;17.00;99.90;;;;;;7378903;19;20339;-73
2022/05/22 08:05:06;;;;;;;1.33;1.08;;;17.50;99.90;;;;;;7374743;19;20336;-71
2022/05/22 08:07:40;;;;;;;1.40;0.90;;;17.80;99.90;;;;;;7275312;19;2004703;-73
2022/05/22 08:10:36;;;;;;;0.93;0.93;;;17.40;99.90;;;;;;7271351;19;2004439;-73
2022/05/22 08:13:07;;;;;;;2.00;1.35;;;17.00;99.90;;;;;;7377392;19;20403;-73
2022/05/22 08:15:34;;;;;;;1.80;1.30;;;17.40;99.90;;;;;;7375844;19;20305;-73
2022/05/22 08:18:22;;;;;;;2.40;1.05;;;17.70;99.90;;;;;;7276513;19;2005158;-71
2022/05/22 08:20:49;;;;;;;2.13;1.30;;;17.80;99.90;;;;;;7373089;19;20341;-71
2022/05/22 08:23:19;;;;;;;1.42;1.10;;;17.80;99.90;;;;;;7378732;19;20853;-71
2022/05/22 08:25:50;;;;;;;2.15;0.90;;;18.20;99.90;;;;;;7376440;19;20344;-71
2022/05/22 08:28:17;;;;;;;1.20;1.10;;;18.30;99.90;;;;;;7376754;19;20337;-72
2022/05/22 08:30:43;;;;;;;1.92;1.08;;;18.50;99.90;;;;;;7374118;19;20337;-72
2022/05/22 08:33:08;;;;;;;1.27;1.10;;;18.50;99.90;;;;;;7375975;19;20707;-72
2022/05/22 08:35:36;;;;;;;0.95;0.85;;;18.00;99.90;;;;;;7374894;19;20321;-72
2022/05/22 08:38:03;;;;;;;2.97;1.10;;;18.40;99.90;;;;;;7377149;19;20898;-72
2022/05/22 08:40:51;;;;;;;1.93;1.30;;;18.70;99.90;;;;;;7372248;19;20345;-72
2022/05/22 08:43:27;;;;;;;1.70;1.00;;;18.80;99.90;;;;;;7375511;19;20329;-72
2022/05/22 08:45:56;;;;;;;1.00;0.95;;;18.90;99.90;;;;;;7375368;19;20345;-72
2022/05/22 08:48:33;;;;;;;1.88;0.98;;;18.80;99.90;;;;;;7375237;19;20898;-72
2022/05/22 08:50:59;;;;;;;1.80;0.93;;;18.40;99.90;;;;;;7373305;19;20341;-72
2022/05/22 08:53:26;;;;;;;1.48;0.98;;;18.60;99.90;;;;;;7376317;19;20343;-71
2022/05/22 08:58:57;;;;;;;2.20;1.00;;;19.20;99.90;;;;;;7276361;19;2004538;-73
2022/05/22 09:01:47;;;;;;;1.10;0.90;;;19.40;99.90;;;;;;7271553;19;2004198;-72
2022/05/22 09:04:33;;;;;;;1.77;1.20;;;19.30;99.90;;;;;;7377291;19;20745;-72
2022/05/22 09:07:18;;;;;;;1.33;1.05;;;19.00;99.90;;;;;;7272465;19;2004402;-72
2022/05/22 09:09:45;;;;;;;0.80;0.70;;;19.00;99.90;;;;;;7275920;19;2004228;-72
2022/05/22 09:12:34;;;;;;;0.80;0.70;;;19.20;99.90;;;;;;7376377;19;20327;-72
2022/05/22 09:15:26;;;;;;;2.80;1.07;;;19.20;99.90;;;;;;7270622;19;2019845;-72
2022/05/22 09:18:25;;;;;;;1.80;0.95;;;19.10;99.90;;;;;;7378304;19;20894;-72
2022/05/22 09:21:35;;;;;;;2.63;1.00;;;19.10;99.90;;;;;;7271103;19;2014926;-72
2022/05/22 09:24:04;;;;;;;2.80;1.15;;;19.20;99.90;;;;;;7270911;19;2004578;-72
2022/05/22 09:26:47;;;;;;;1.33;1.08;;;19.30;99.90;;;;;;7376082;19;20817;-72
2022/05/22 09:29:31;;;;;;;1.57;0.80;;;19.20;99.90;;;;;;7277561;19;2004419;-71
2022/05/22 09:32:03;;;;;;;3.03;1.48;;;19.40;99.90;;;;;;7374673;19;20340;-71
2022/05/22 09:34:56;;;;;;;3.10;1.20;;;20.00;99.90;;;;;;7375915;19;20313;-71
2022/05/22 09:37:34;;;;;;;1.70;1.00;;;19.90;99.90;;;;;;7374455;19;20334;-72
2022/05/22 09:40:11;;;;;;;1.38;1.02;;;19.80;99.90;;;;;;7375517;19;20325;-72
2022/05/22 09:42:39;;;;;;;2.72;1.00;;;20.30;99.90;;;;;;7377492;19;20368;-70
2022/05/22 09:45:27;;;;;;;1.15;0.82;;;20.00;99.90;;;;;;7373323;19;20365;-72
2022/05/22 09:47:56;;;;;;;2.10;1.10;;;20.10;99.90;;;;;;7371854;19;20331;-72
2022/05/22 09:50:35;;;;;;;1.15;0.95;;;20.90;99.90;;;;;;7374973;19;20339;-72
2022/05/22 09:53:07;;;;;;;1.13;1.00;;;21.10;99.90;;;;;;7374461;19;20332;-72
2022/05/22 09:55:44;;;;;;;0.90;0.90;;;20.90;99.90;;;;;;7370603;19;20337;-71
2022/05/22 09:58:38;;;;;;;1.50;1.00;;;20.70;99.90;;;;;;7372756;19;20813;-71
2022/05/22 10:01:13;;;;;;;1.42;1.05;;;20.00;99.90;;;;;;7266961;19;2004753;-73
2022/05/22 10:03:57;;;;;;;1.15;0.98;;;19.70;99.90;;;;;;7381346;19;20348;-73
2022/05/22 10:06:34;;;;;;;1.52;0.95;;;20.10;99.90;;;;;;7267911;19;2004640;-73
2022/05/22 10:09:13;;;;;;;3.10;1.08;;;20.30;99.90;;;;;;7276295;19;2004414;-74
2022/05/22 10:11:48;;;;;;;1.50;1.00;;;20.50;99.90;;;;;;7272324;19;2020009;-73
2022/05/22 10:14:48;;;;;;;2.22;1.10;;;20.70;99.90;;;;;;7278814;19;2004269;-74
2022/05/22 10:17:39;;;;;;;1.77;1.00;;;20.60;99.90;;;;;;7275848;19;2015432;-73
2022/05/22 10:20:35;;;;;;;1.45;1.00;;;20.90;99.90;;;;;;7274973;19;2004506;-74
2022/05/22 10:23:28;;;;;;;2.22;1.15;;;21.70;99.90;;;;;;7377672;19;20855;-74
2022/05/22 10:26:25;;;;;;;1.92;0.88;;;22.50;99.90;;;;;;7275086;19;2004661;-74
2022/05/22 10:29:00;;;;;;;0.82;0.80;;;23.20;99.90;;;;;;7383900;19;20681;-74
2022/05/22 10:31:41;;;;;;;0.80;0.80;;;22.90;99.90;;;;;;7376256;19;21248;-74
2022/05/22 10:34:34;;;;;;;1.20;0.90;;;22.90;99.90;;;;;;7278001;19;2004657;-73
2022/05/22 10:37:03;;;;;;;1.02;0.90;;;22.30;99.90;;;;;;7272548;19;2004510;-74
2022/05/22 10:39:29;;;;;;;1.20;0.90;;;22.70;99.90;;;;;;7376458;19;20855;-74
2022/05/22 10:44:43;;;;;;;0.73;0.73;;;24.00;99.90;;;;;;7274336;19;2004687;-73
2022/05/22 10:47:08;;;;;;;1.73;0.90;;;24.00;98.20;;;;;;7374526;19;20827;-75
2022/05/22 10:49:44;;;;;;;1.30;1.00;;;24.50;99.00;;;;;;7378056;19;20352;-74
2022/05/22 10:52:12;;;;;;;1.52;0.85;;;24.60;94.80;;;;;;7369737;19;20862;-74
2022/05/22 10:54:50;;;;;;;1.13;0.90;;;24.30;96.30;;;;;;7377415;19;20380;-74
2022/05/22 10:57:20;;;;;;;1.38;0.93;;;24.20;96.40;;;;;;7278745;19;2004310;-74
2022/05/22 10:59:46;;;;;;;1.10;1.00;;;22.40;92.30;;;;;;7380073;19;20324;-74
2022/05/22 11:02:36;;;;;;;1.30;1.00;;;22.50;96.30;;;;;;7376832;19;20343;-74
2022/05/22 11:05:02;;;;;;;2.15;1.10;;;21.90;98.20;;;;;;7379964;19;20301;-74
2022/05/22 11:07:41;;;;;;;1.10;0.90;;;21.10;97.40;;;;;;7380462;19;20359;-74
2022/05/22 11:10:13;;;;;;;2.00;0.90;;;21.10;98.00;;;;;;7379144;19;20863;-73
2022/05/22 11:12:38;;;;;;;1.80;1.20;;;21.80;99.70;;;;;;7374714;19;20353;-74
2022/05/22 11:15:08;;;;;;;2.20;1.10;;;22.30;98.60;;;;;;7372671;19;20319;-74
2022/05/22 11:17:33;;;;;;;1.05;0.70;;;22.60;97.70;;;;;;7377105;19;20349;-74
2022/05/22 11:20:02;;;;;;;1.40;0.90;;;23.00;97.20;;;;;;7375210;19;20379;-74
2022/05/22 11:22:39;;;;;;;1.42;0.88;;;23.30;96.00;;;;;;7375914;19;20347;-74
2022/05/22 11:25:04;;;;;;;1.00;0.73;;;24.00;97.40;;;;;;7271802;19;2004561;-74
2022/05/22 11:27:40;;;;;;;1.23;1.00;;;23.90;93.90;;;;;;7377951;19;20420;-75
2022/05/22 11:30:28;;;;;;;1.20;1.00;;;23.10;93.40;;;;;;7378556;19;20659;-75
2022/05/22 11:33:15;;;;;;;0.90;0.80;;;23.00;94.80;;;;;;7378167;19;21164;-74
2022/05/22 11:35:53;;;;;;;3.47;1.00;;;22.90;95.20;;;;;;7272972;19;2005399;-74
2022/05/22 11:38:43;;;;;;;1.10;1.00;;;23.50;95.00;;;;;;7377620;19;20828;-74
2022/05/22 11:41:28;;;;;;;1.88;1.00;;;24.30;93.30;;;;;;7372015;19;21061;-74
2022/05/22 11:44:27;;;;;;;1.40;1.00;;;25.10;94.30;;;;;;7374895;19;20671;-74
2022/05/22 11:47:06;;;;;;;0.87;0.83;;;24.60;91.60;;;;;;7273928;19;2004308;-74
2022/05/22 11:49:38;;;;;;;0.80;0.80;;;23.70;91.50;;;;;;7375539;19;20332;-74
2022/05/22 11:55:59;;;;;;;1.30;0.80;;;22.40;92.50;;;;;;7272495;19;2004342;-75
2022/05/22 11:58:44;;;;;;;1.30;1.20;;;23.10;94.70;;;;;;7273233;19;2004327;-74
2022/05/22 12:01:21;;;;;;;1.75;1.00;;;23.20;94.00;;;;;;7369626;19;20340;-74
2022/05/22 12:04:05;;;;;;;3.20;1.00;;;22.70;91.30;;;;;;7373549;19;22130;-74
2022/05/22 12:06:56;;;;;;;0.90;0.90;;;22.90;94.20;;;;;;7271387;19;2004338;-75
2022/05/22 12:10:02;;;;;;;1.45;1.02;;;23.20;92.90;;;;;;7272708;19;2004426;-75
2022/05/22 12:12:48;;;;;;;0.77;0.73;;;23.50;92.00;;;;;;7270042;19;2004356;-74
2022/05/22 12:15:17;;;;;;;1.30;1.00;;;22.90;91.60;;;;;;7373937;19;20417;-75
2022/05/22 12:17:46;;;;;;;1.00;0.90;;;22.70;93.50;;;;;;7351994;19;20316;-75
2022/05/22 12:20:38;;;;;;;0.90;0.80;;;22.20;92.80;;;;;;7374145;19;21248;-74
2022/05/22 12:23:15;;;;;;;0.80;0.80;;;22.90;94.40;;;;;;7271054;19;2013077;-75
2022/05/22 12:25:44;;;;;;;1.40;0.90;;;24.10;95.10;;;;;;7373212;19;20843;-74
2022/05/22 12:28:36;;;;;;;1.63;0.90;;;24.90;91.00;;;;;;7373760;19;20835;-75
2022/05/22 12:31:04;;;;;;;0.73;0.73;;;24.30;87.80;;;;;;7370779;19;20328;-75
2022/05/22 12:33:31;;;;;;;2.10;0.95;;;23.90;90.40;;;;;;7375315;19;20344;-74
2022/05/22 12:35:57;;;;;;;2.15;0.90;;;23.60;90.40;;;;;;7374564;19;20438;-75
2022/05/22 12:38:23;;;;;;;1.00;0.70;;;24.30;91.70;;;;;;7372422;19;20349;-78
2022/05/22 12:41:01;;;;;;;2.00;0.90;;;25.40;92.20;;;;;;7372097;19;20353;-75
2022/05/22 12:43:27;;;;;;;1.30;1.00;;;25.90;90.60;;;;;;7374769;19;20328;-75
2022/05/22 12:46:00;;;;;;;1.50;0.98;;;26.20;87.50;;;;;;7374070;19;20320;-75
2022/05/22 12:48:32;;;;;;;1.00;0.90;;;27.10;86.70;;;;;;7374738;19;20349;-75
2022/05/22 12:51:15;;;;;;;1.33;1.00;;;26.20;80.00;;;;;;7370147;19;20364;-74
2022/05/22 12:53:48;;;;;;;0.98;0.95;;;24.90;81.50;;;;;;7375666;19;20903;-75
2022/05/22 12:56:24;;;;;;;1.10;0.90;;;23.20;83.30;;;;;;7371609;19;20990;-76
2022/05/22 12:58:56;;;;;;;0.90;0.85;;;23.70;88.00;;;;;;7372683;19;21017;-76
2022/05/22 13:01:27;;;;;;;0.70;0.70;;;24.20;90.10;;;;;;7368791;19;20356;-76
2022/05/22 13:03:54;;;;;;;1.25;0.90;;;24.50;87.60;;;;;;6081687;19;10001339;-73
2022/05/22 13:06:27;;;;;;;2.15;1.17;;;24.40;83.70;;;;;;7371690;19;20309;-73
2022/05/22 13:09:06;;;;;;;1.08;1.00;;;24.30;89.60;;;;;;7374093;19;20336;-72
2022/05/22 13:11:41;;;;;;;1.63;0.98;;;24.80;84.40;;;;;;7371900;19;20348;-73
2022/05/22 13:14:20;;;;;;;1.98;1.13;;;25.60;85.70;;;;;;7372226;19;21451;-74
2022/05/22 13:16:47;;;;;;;1.50;1.00;;;26.30;86.30;;;;;;7371611;19;20348;-72
2022/05/22 13:19:21;;;;;;;2.65;0.98;;;26.70;83.50;;;;;;7373575;19;20369;-73
2022/05/22 13:21:46;;;;;;;1.70;0.90;;;25.50;77.30;;;;;;7369467;19;20367;-73
2022/05/22 13:24:15;;;;;;;0.77;0.77;;;26.50;87.00;;;;;;7373574;19;20321;-73
2022/05/22 13:26:41;;;;;;;1.03;0.97;;;27.20;79.40;;;;;;7370816;19;20352;-74
2022/05/22 13:29:16;;;;;;;2.65;1.17;;;27.50;79.30;;;;;;7374065;19;20337;-74
2022/05/22 13:31:49;;;;;;;1.85;1.05;;;28.20;78.80;;;;;;7368442;19;20355;-76
2022/05/22 13:34:15;;;;;;;0.80;0.80;;;27.10;69.50;;;;;;7374363;19;20963;-76
2022/05/22 13:36:49;;;;;;;1.10;1.00;;;27.20;71.20;;;;;;7377759;19;20406;-76